createdAt,value
2018-12-30T00:00:28.348Z,99.99
2018-12-30T00:01:28.326Z,99.99
2018-12-30T00:02:28.558Z,99.99
2018-12-30T00:03:28.410Z,99.99
2018-12-30T00:04:28.323Z,99.99
2018-12-30T00:05:28.435Z,99.99
2018-12-30T00:06:28.315Z,99.99
2018-12-30T00:07:28.416Z,99.99
2018-12-30T00:08:28.262Z,99.99
2018-12-30T00:09:28.260Z,99.99
2018-12-30T00:10:28.339Z,99.99
2018-12-30T00:11:28.300Z,99.99
2018-12-30T00:12:28.287Z,99.99
2018-12-30T00:13:28.209Z,99.99
2018-12-30T00:14:28.192Z,99.99
2018-12-30T00:15:28.187Z,99.99
2018-12-30T00:16:28.214Z,99.99
2018-12-30T00:17:28.330Z,99.49
2018-12-30T00:18:28.164Z,98.67
2018-12-30T00:19:28.139Z,98.10
2018-12-30T00:20:28.139Z,98.10
2018-12-30T00:21:28.147Z,98.92
2018-12-30T00:22:28.151Z,97.99
2018-12-30T00:23:28.109Z,97.52
2018-12-30T00:24:28.160Z,96.49
2018-12-30T00:25:28.132Z,97.11
2018-12-30T00:26:28.066Z,96.49
2018-12-30T00:27:28.080Z,97.42
2018-12-30T00:28:28.090Z,96.70
2018-12-30T00:29:28.040Z,97.11
2018-12-30T00:30:28.318Z,97.26
2018-12-30T00:31:28.009Z,97.26
2018-12-30T00:32:28.014Z,97.26
2018-12-30T00:33:27.993Z,96.84
2018-12-30T00:34:28.022Z,96.74
2018-12-30T00:35:27.976Z,97.16
2018-12-30T00:36:28.019Z,97.26
2018-12-30T00:37:28.012Z,98.13
2018-12-30T00:38:27.973Z,97.41
2018-12-30T00:39:27.991Z,96.79
2018-12-30T00:40:27.963Z,96.99
2018-12-30T00:41:27.967Z,96.48
2018-12-30T00:42:27.965Z,96.58
2018-12-30T00:43:27.894Z,96.37
2018-12-30T00:44:27.915Z,97.72
2018-12-30T00:45:27.881Z,97.20
2018-12-30T00:46:27.932Z,97.25
2018-12-30T00:47:27.894Z,97.76
2018-12-30T00:48:27.840Z,97.14
2018-12-30T00:49:27.858Z,97.45
2018-12-30T00:50:27.818Z,97.34
2018-12-30T00:51:27.804Z,97.45
2018-12-30T00:52:27.870Z,96.62
2018-12-30T00:53:27.782Z,97.55
2018-12-30T00:54:27.831Z,96.83
2018-12-30T00:55:27.761Z,97.04
2018-12-30T00:56:27.770Z,97.66
2018-12-30T00:57:27.740Z,96.31
2018-12-30T00:58:27.771Z,97.14
2018-12-30T00:59:27.805Z,96.88
2018-12-30T01:00:27.797Z,96.42
2018-12-30T01:01:27.746Z,96.31
2018-12-30T01:02:27.739Z,96.88
2018-12-30T01:03:27.715Z,96.36
2018-12-30T01:04:27.698Z,96.77
2018-12-30T01:05:27.661Z,95.49
2018-12-30T01:06:27.653Z,95.53
2018-12-30T01:07:27.638Z,94.40
2018-12-30T01:08:27.639Z,92.08
2018-12-30T01:09:27.725Z,93.32
2018-12-30T01:10:27.675Z,93.88
2018-12-30T01:11:27.598Z,93.88
2018-12-30T01:12:27.599Z,92.85
2018-12-30T01:13:27.572Z,91.56
2018-12-30T01:14:27.570Z,91.92
2018-12-30T01:15:28.284Z,90.74
2018-12-30T01:16:27.706Z,90.02
2018-12-30T01:17:27.534Z,90.95
2018-12-30T01:18:27.526Z,90.84
2018-12-30T01:19:27.520Z,90.84
2018-12-30T01:20:27.499Z,91.50
2018-12-30T01:21:27.511Z,92.23
2018-12-30T01:22:27.510Z,92.74
2018-12-30T01:23:27.472Z,93.78
2018-12-30T01:24:27.545Z,93.78
2018-12-30T01:25:27.457Z,93.88
2018-12-30T01:26:27.439Z,94.09
2018-12-30T01:27:27.452Z,94.40
2018-12-30T01:28:27.452Z,94.60
2018-12-30T01:29:27.456Z,94.29
2018-12-30T01:30:27.410Z,94.09
2018-12-30T01:31:27.393Z,94.19
2018-12-30T01:32:27.389Z,94.29
2018-12-30T01:33:27.369Z,94.09
2018-12-30T01:34:27.354Z,94.40
2018-12-30T01:35:27.374Z,94.60
2018-12-30T01:36:27.331Z,94.19
2018-12-30T01:37:28.764Z,93.68
2018-12-30T01:38:27.325Z,94.19
2018-12-30T01:39:27.304Z,94.09
2018-12-30T01:40:27.301Z,93.88
2018-12-30T01:41:27.325Z,93.05
2018-12-30T01:42:27.271Z,92.95
2018-12-30T01:43:27.268Z,93.72
2018-12-30T01:44:27.253Z,91.86
2018-12-30T01:45:27.236Z,92.17
2018-12-30T01:46:27.253Z,92.89
2018-12-30T01:47:27.215Z,90.99
2018-12-30T01:48:27.209Z,90.83
2018-12-30T01:49:27.205Z,91.50
2018-12-30T01:50:27.193Z,90.58
2018-12-30T01:51:32.954Z,90.72
2018-12-30T01:52:28.191Z,91.61
2018-12-30T01:53:27.151Z,90.37
2018-12-30T01:54:27.139Z,90.89
2018-12-30T01:55:27.131Z,90.93
2018-12-30T01:56:27.128Z,90.47
2018-12-30T01:57:27.128Z,90.16
2018-12-30T01:58:27.117Z,89.65
2018-12-30T01:59:27.089Z,89.75
2018-12-30T02:00:27.081Z,89.65
2018-12-30T02:01:27.073Z,88.61
2018-12-30T02:02:27.070Z,87.99
2018-12-30T02:03:27.075Z,89.23
2018-12-30T02:04:27.045Z,89.13
2018-12-30T02:05:27.027Z,89.28
2018-12-30T02:06:27.019Z,89.59
2018-12-30T02:07:27.039Z,89.28
2018-12-30T02:08:27.065Z,88.82
2018-12-30T02:09:27.319Z,89.34
2018-12-30T02:10:26.976Z,88.82
2018-12-30T02:11:26.968Z,87.79
2018-12-30T02:12:26.960Z,86.13
2018-12-30T02:13:26.936Z,87.17
2018-12-30T02:14:26.935Z,87.48
2018-12-30T02:15:26.955Z,87.27
2018-12-30T02:16:26.911Z,87.48
2018-12-30T02:17:26.902Z,87.79
2018-12-30T02:18:26.903Z,88.55
2018-12-30T02:19:26.884Z,88.51
2018-12-30T02:20:26.872Z,87.73
2018-12-30T02:21:26.878Z,87.83
2018-12-30T02:22:26.844Z,88.31
2018-12-30T02:23:26.843Z,87.17
2018-12-30T02:24:26.830Z,87.17
2018-12-30T02:25:26.808Z,87.99
2018-12-30T02:26:26.829Z,87.89
2018-12-30T02:27:26.794Z,87.31
2018-12-30T02:28:26.781Z,87.68
2018-12-30T02:29:26.766Z,87.99
2018-12-30T02:30:26.785Z,88.14
2018-12-30T02:31:26.746Z,87.93
2018-12-30T02:32:26.772Z,88.82
2018-12-30T02:33:26.729Z,88.65
2018-12-30T02:34:26.719Z,88.55
2018-12-30T02:35:26.711Z,88.76
2018-12-30T02:36:26.707Z,88.31
2018-12-30T02:37:26.682Z,89.13
2018-12-30T02:38:26.696Z,89.79
2018-12-30T02:39:26.682Z,89.59
2018-12-30T02:40:26.653Z,88.86
2018-12-30T02:41:26.655Z,88.96
2018-12-30T02:42:26.641Z,89.28
2018-12-30T02:43:26.659Z,89.17
2018-12-30T02:44:26.618Z,89.38
2018-12-30T02:45:26.603Z,88.86
2018-12-30T02:46:26.589Z,88.04
2018-12-30T02:47:26.592Z,88.04
2018-12-30T02:48:26.578Z,87.83
2018-12-30T02:49:26.595Z,87.93
2018-12-30T02:50:26.552Z,87.27
2018-12-30T02:51:26.538Z,87.62
2018-12-30T02:52:26.524Z,87.41
2018-12-30T02:53:26.514Z,87.52
2018-12-30T02:54:26.502Z,88.04
2018-12-30T02:55:26.511Z,88.65
2018-12-30T02:56:26.486Z,87.52
2018-12-30T02:57:26.493Z,87.10
2018-12-30T02:58:26.470Z,87.83
2018-12-30T02:59:26.470Z,87.52
2018-12-30T03:00:26.469Z,87.21
2018-12-30T03:01:26.446Z,87.62
2018-12-30T03:02:26.425Z,87.21
2018-12-30T03:03:26.411Z,87.31
2018-12-30T03:04:26.402Z,87.41
2018-12-30T03:05:26.385Z,87.52
2018-12-30T03:06:26.404Z,86.90
2018-12-30T03:07:26.374Z,87.21
2018-12-30T03:08:26.361Z,86.59
2018-12-30T03:09:26.351Z,86.90
2018-12-30T03:10:26.341Z,86.90
2018-12-30T03:11:26.335Z,86.18
2018-12-30T03:12:26.343Z,86.21
2018-12-30T03:13:26.313Z,85.76
2018-12-30T03:14:26.303Z,86.18
2018-12-30T03:15:26.289Z,85.86
2018-12-30T03:16:26.275Z,85.70
2018-12-30T03:17:26.277Z,85.55
2018-12-30T03:18:26.258Z,85.55
2018-12-30T03:19:26.253Z,85.76
2018-12-30T03:20:26.240Z,86.18
2018-12-30T03:21:26.231Z,86.28
2018-12-30T03:22:26.239Z,85.04
2018-12-30T03:23:26.195Z,84.83
2018-12-30T03:24:26.192Z,84.63
2018-12-30T03:25:26.181Z,85.86
2018-12-30T03:26:26.171Z,84.42
2018-12-30T03:27:26.165Z,84.21
2018-12-30T03:28:26.177Z,84.42
2018-12-30T03:29:26.139Z,84.31
2018-12-30T03:30:26.125Z,84.21
2018-12-30T03:31:26.120Z,84.31
2018-12-30T03:32:26.110Z,84.94
2018-12-30T03:33:26.099Z,84.42
2018-12-30T03:34:26.110Z,84.52
2018-12-30T03:35:26.077Z,85.04
2018-12-30T03:36:26.092Z,85.66
2018-12-30T03:37:26.051Z,85.66
2018-12-30T03:38:26.048Z,84.83
2018-12-30T03:39:26.038Z,84.94
2018-12-30T03:40:26.046Z,84.38
2018-12-30T03:41:26.012Z,84.69
2018-12-30T03:42:26.003Z,85.76
2018-12-30T03:43:25.985Z,85.66
2018-12-30T03:44:25.976Z,85.55
2018-12-30T03:45:26.034Z,85.45
2018-12-30T03:46:25.967Z,84.83
2018-12-30T03:47:25.949Z,85.83
2018-12-30T03:48:25.942Z,84.83
2018-12-30T03:49:25.943Z,85.55
2018-12-30T03:50:25.917Z,85.76
2018-12-30T03:51:25.932Z,85.55
2018-12-30T03:52:25.912Z,85.83
2018-12-30T03:53:25.888Z,85.41
2018-12-30T03:54:25.877Z,86.38
2018-12-30T03:55:25.858Z,86.18
2018-12-30T03:56:25.848Z,87.31
2018-12-30T03:57:25.858Z,87.21
2018-12-30T03:58:25.854Z,86.49
2018-12-30T03:59:25.830Z,87.41
2018-12-30T04:00:25.818Z,87.31
2018-12-30T04:01:25.797Z,86.90
2018-12-30T04:02:25.814Z,86.86
2018-12-30T04:03:25.780Z,87.27
2018-12-30T04:04:25.775Z,86.86
2018-12-30T04:05:25.761Z,87.68
2018-12-30T04:06:25.755Z,87.27
2018-12-30T04:07:25.746Z,88.14
2018-12-30T04:08:25.841Z,87.68
2018-12-30T04:09:25.727Z,87.89
2018-12-30T04:10:25.701Z,88.20
2018-12-30T04:11:25.700Z,87.58
2018-12-30T04:12:25.684Z,87.68
2018-12-30T04:13:25.680Z,87.79
2018-12-30T04:14:25.681Z,87.99
2018-12-30T04:15:25.657Z,87.58
2018-12-30T04:16:25.662Z,88.31
2018-12-30T04:17:25.640Z,87.99
2018-12-30T04:18:25.621Z,88.31
2018-12-30T04:19:25.650Z,87.68
2018-12-30T04:20:25.601Z,87.99
2018-12-30T04:21:25.588Z,87.68
2018-12-30T04:22:25.579Z,87.68
2018-12-30T04:23:25.570Z,87.79
2018-12-30T04:24:25.560Z,87.99
2018-12-30T04:25:25.575Z,88.10
2018-12-30T04:26:25.545Z,87.27
2018-12-30T04:27:25.527Z,87.37
2018-12-30T04:28:25.529Z,87.48
2018-12-30T04:29:25.509Z,87.37
2018-12-30T04:30:25.491Z,87.85
2018-12-30T04:31:25.504Z,87.58
2018-12-30T04:32:25.477Z,87.17
2018-12-30T04:33:25.463Z,86.65
2018-12-30T04:34:25.467Z,86.51
2018-12-30T04:35:25.435Z,86.20
2018-12-30T04:36:25.427Z,85.47
2018-12-30T04:37:25.441Z,85.58
2018-12-30T04:38:25.418Z,85.47
2018-12-30T04:39:25.398Z,85.89
2018-12-30T04:40:25.411Z,85.47
2018-12-30T04:41:25.378Z,85.68
2018-12-30T04:42:25.399Z,85.58
2018-12-30T04:43:25.353Z,85.47
2018-12-30T04:44:25.351Z,85.58
2018-12-30T04:45:25.348Z,85.58
2018-12-30T04:46:25.329Z,85.58
2018-12-30T04:47:25.316Z,85.68
2018-12-30T04:48:25.346Z,85.47
2018-12-30T04:49:25.311Z,85.68
2018-12-30T04:50:25.284Z,85.37
2018-12-30T04:51:25.281Z,85.68
2018-12-30T04:52:26.158Z,85.78
2018-12-30T04:53:25.248Z,85.64
2018-12-30T04:54:25.256Z,85.89
2018-12-30T04:55:25.237Z,85.47
2018-12-30T04:56:25.225Z,85.78
2018-12-30T04:57:25.219Z,86.82
2018-12-30T04:58:25.239Z,86.71
2018-12-30T04:59:25.220Z,85.78
2018-12-30T05:00:25.181Z,86.30
2018-12-30T05:01:25.169Z,86.10
2018-12-30T05:02:25.169Z,86.41
2018-12-30T05:03:25.147Z,86.61
2018-12-30T05:04:25.142Z,85.99
2018-12-30T05:05:25.140Z,86.41
2018-12-30T05:06:25.116Z,85.78
2018-12-30T05:07:25.100Z,86.10
2018-12-30T05:08:25.098Z,86.61
2018-12-30T05:09:25.081Z,85.89
2018-12-30T05:10:25.102Z,85.78
2018-12-30T05:11:25.123Z,85.68
2018-12-30T05:12:25.054Z,85.33
2018-12-30T05:13:25.041Z,84.81
2018-12-30T05:14:25.034Z,85.58
2018-12-30T05:15:25.035Z,85.47
2018-12-30T05:16:25.023Z,84.81
2018-12-30T05:17:24.995Z,85.99
2018-12-30T05:18:25.005Z,85.02
2018-12-30T05:19:24.987Z,85.64
2018-12-30T05:20:25.024Z,84.75
2018-12-30T05:21:24.993Z,84.20
2018-12-30T05:22:24.949Z,84.30
2018-12-30T05:23:24.938Z,84.20
2018-12-30T05:24:24.934Z,84.51
2018-12-30T05:25:24.918Z,84.92
2018-12-30T05:26:24.929Z,85.75
2018-12-30T05:27:24.899Z,84.51
2018-12-30T05:28:24.888Z,84.30
2018-12-30T05:29:24.890Z,85.44
2018-12-30T05:30:24.858Z,85.44
2018-12-30T05:31:24.859Z,84.72
2018-12-30T05:32:24.867Z,85.54
2018-12-30T05:33:24.839Z,85.54
2018-12-30T05:34:24.826Z,85.54
2018-12-30T05:35:24.809Z,85.44
2018-12-30T05:36:24.804Z,85.44
2018-12-30T05:37:24.824Z,85.64
2018-12-30T05:38:24.791Z,85.54
2018-12-30T05:39:24.777Z,85.85
2018-12-30T05:40:24.758Z,85.85
2018-12-30T05:41:24.749Z,86.36
2018-12-30T05:42:24.747Z,86.47
2018-12-30T05:43:24.759Z,87.19
2018-12-30T05:44:24.717Z,87.08
2018-12-30T05:45:24.706Z,87.60
2018-12-30T05:46:24.696Z,87.71
2018-12-30T05:47:24.691Z,87.92
2018-12-30T05:48:24.713Z,88.32
2018-12-30T05:49:24.668Z,88.32
2018-12-30T05:50:24.666Z,88.22
2018-12-30T05:51:24.655Z,88.53
2018-12-30T05:52:24.641Z,88.22
2018-12-30T05:53:24.622Z,88.53
2018-12-30T05:54:24.644Z,88.32
2018-12-30T05:55:24.607Z,88.74
2018-12-30T05:56:24.596Z,88.84
2018-12-30T05:57:24.583Z,88.84
2018-12-30T05:58:24.566Z,88.95
2018-12-30T05:59:24.580Z,88.53
2018-12-30T06:00:24.584Z,88.53
2018-12-30T06:01:24.539Z,88.32
2018-12-30T06:02:24.536Z,88.64
2018-12-30T06:03:24.535Z,89.15
2018-12-30T06:04:24.522Z,89.15
2018-12-30T06:05:24.498Z,88.95
2018-12-30T06:06:24.506Z,89.56
2018-12-30T06:07:24.476Z,89.15
2018-12-30T06:08:24.463Z,89.46
2018-12-30T06:09:24.461Z,89.46
2018-12-30T06:10:24.445Z,89.15
2018-12-30T06:11:24.470Z,88.70
2018-12-30T06:12:24.437Z,88.90
2018-12-30T06:13:24.407Z,88.59
2018-12-30T06:14:24.406Z,88.29
2018-12-30T06:15:24.399Z,88.80
2018-12-30T06:16:24.380Z,88.70
2018-12-30T06:17:24.399Z,88.18
2018-12-30T06:18:24.381Z,88.80
2018-12-30T06:19:24.350Z,88.39
2018-12-30T06:20:24.340Z,88.49
2018-12-30T06:21:24.349Z,88.70
2018-12-30T06:22:24.343Z,88.29
2018-12-30T06:23:24.314Z,88.49
2018-12-30T06:24:24.298Z,87.87
2018-12-30T06:25:24.293Z,88.39
2018-12-30T06:26:24.284Z,88.29
2018-12-30T06:27:24.264Z,87.87
2018-12-30T06:28:24.275Z,87.66
2018-12-30T06:29:24.262Z,86.84
2018-12-30T06:30:24.238Z,86.39
2018-12-30T06:31:24.223Z,86.84
2018-12-30T06:32:24.214Z,86.53
2018-12-30T06:33:24.276Z,86.84
2018-12-30T06:34:24.198Z,87.05
2018-12-30T06:35:24.191Z,87.15
2018-12-30T06:36:24.173Z,86.74
2018-12-30T06:37:24.162Z,86.32
2018-12-30T06:38:24.155Z,86.18
2018-12-30T06:39:24.170Z,85.81
2018-12-30T06:40:24.178Z,86.12
2018-12-30T06:41:24.125Z,85.91
2018-12-30T06:42:24.120Z,86.02
2018-12-30T06:43:24.099Z,85.87
2018-12-30T06:44:24.106Z,86.02
2018-12-30T06:45:24.093Z,86.02
2018-12-30T06:46:24.064Z,85.97
2018-12-30T06:47:24.068Z,86.53
2018-12-30T06:48:24.045Z,86.43
2018-12-30T06:49:24.063Z,86.18
2018-12-30T06:50:24.094Z,86.63
2018-12-30T06:51:24.018Z,86.43
2018-12-30T06:52:24.005Z,86.63
2018-12-30T06:53:24.001Z,87.15
2018-12-30T06:54:24.013Z,87.46
2018-12-30T06:55:23.973Z,87.66
2018-12-30T06:56:23.968Z,88.39
2018-12-30T06:57:23.962Z,88.90
2018-12-30T06:58:23.940Z,89.01
2018-12-30T06:59:23.935Z,89.11
2018-12-30T07:00:23.991Z,88.80
2018-12-30T07:01:23.914Z,89.83
2018-12-30T07:02:23.903Z,89.42
2018-12-30T07:03:23.905Z,89.62
2018-12-30T07:04:23.875Z,89.32
2018-12-30T07:05:23.898Z,89.42
2018-12-30T07:06:23.862Z,89.67
2018-12-30T07:07:23.876Z,89.56
2018-12-30T07:08:23.842Z,89.67
2018-12-30T07:09:23.839Z,89.46
2018-12-30T07:10:23.819Z,90.14
2018-12-30T07:11:23.821Z,89.62
2018-12-30T07:12:23.805Z,89.42
2018-12-30T07:13:23.791Z,89.52
2018-12-30T07:14:23.775Z,89.67
2018-12-30T07:15:23.771Z,89.62
2018-12-30T07:16:23.782Z,90.14
2018-12-30T07:17:23.749Z,89.42
2018-12-30T07:18:23.734Z,89.42
2018-12-30T07:19:23.728Z,89.52
2018-12-30T07:20:23.721Z,89.73
2018-12-30T07:21:23.711Z,89.62
2018-12-30T07:22:23.718Z,89.01
2018-12-30T07:23:23.692Z,89.32
2018-12-30T07:24:23.675Z,88.80
2018-12-30T07:25:23.665Z,89.42
2018-12-30T07:26:23.657Z,89.73
2018-12-30T07:27:23.675Z,89.01
2018-12-30T07:28:23.628Z,89.11
2018-12-30T07:29:23.627Z,89.01
2018-12-30T07:30:23.616Z,89.01
2018-12-30T07:31:23.640Z,89.11
2018-12-30T07:32:23.628Z,89.22
2018-12-30T07:33:23.579Z,88.49
2018-12-30T07:34:23.570Z,88.90
2018-12-30T07:35:23.565Z,89.01
2018-12-30T07:36:23.546Z,89.42
2018-12-30T07:37:23.549Z,88.70
2018-12-30T07:38:23.556Z,88.70
2018-12-30T07:39:23.520Z,88.59
2018-12-30T07:40:23.506Z,88.59
2018-12-30T07:41:23.495Z,88.59
2018-12-30T07:42:23.486Z,87.66
2018-12-30T07:43:23.515Z,87.93
2018-12-30T07:44:23.474Z,87.11
2018-12-30T07:45:23.500Z,87.46
2018-12-30T07:46:23.447Z,86.80
2018-12-30T07:47:23.471Z,87.21
2018-12-30T07:48:23.485Z,87.42
2018-12-30T07:49:23.472Z,87.21
2018-12-30T07:50:23.409Z,86.39
2018-12-30T07:51:23.392Z,86.70
2018-12-30T07:52:23.384Z,87.21
2018-12-30T07:53:23.369Z,87.15
2018-12-30T07:54:23.525Z,86.70
2018-12-30T07:55:23.561Z,86.39
2018-12-30T07:56:23.346Z,86.39
2018-12-30T07:57:23.334Z,86.90
2018-12-30T07:58:23.412Z,86.49
2018-12-30T07:59:23.398Z,86.60
2018-12-30T08:00:23.305Z,85.77
2018-12-30T08:01:23.285Z,86.18
2018-12-30T08:02:23.319Z,85.77
2018-12-30T08:03:23.315Z,85.67
2018-12-30T08:04:23.259Z,85.77
2018-12-30T08:05:23.265Z,85.97
2018-12-30T08:06:23.237Z,86.39
2018-12-30T08:07:23.244Z,85.77
2018-12-30T08:08:23.262Z,85.77
2018-12-30T08:09:23.204Z,85.97
2018-12-30T08:10:23.305Z,85.77
2018-12-30T08:11:23.183Z,85.57
2018-12-30T08:12:23.228Z,85.46
2018-12-30T08:13:23.169Z,85.42
2018-12-30T08:14:23.153Z,85.67
2018-12-30T08:15:23.137Z,85.42
2018-12-30T08:16:23.145Z,85.67
2018-12-30T08:17:23.136Z,85.67
2018-12-30T08:18:23.125Z,85.57
2018-12-30T08:19:23.115Z,85.25
2018-12-30T08:20:23.263Z,85.31
2018-12-30T08:21:23.310Z,85.46
2018-12-30T08:22:23.063Z,85.46
2018-12-30T08:23:23.737Z,85.57
2018-12-30T08:24:23.045Z,85.46
2018-12-30T08:25:23.037Z,85.97
2018-12-30T08:26:23.024Z,85.67
2018-12-30T08:27:23.037Z,85.67
2018-12-30T08:28:25.141Z,85.77
2018-12-30T08:29:23.032Z,86.39
2018-12-30T08:30:23.029Z,85.97
2018-12-30T08:31:22.974Z,86.08
2018-12-30T08:32:22.995Z,85.87
2018-12-30T08:33:22.953Z,86.39
2018-12-30T08:34:22.992Z,86.60
2018-12-30T08:35:22.927Z,87.05
2018-12-30T08:36:22.919Z,86.43
2018-12-30T08:37:22.982Z,86.84
2018-12-30T08:38:22.912Z,87.11
2018-12-30T08:39:22.885Z,87.35
2018-12-30T08:40:23.007Z,87.46
2018-12-30T08:41:22.865Z,87.46
2018-12-30T08:42:22.872Z,87.35
2018-12-30T08:43:22.876Z,87.77
2018-12-30T08:44:22.869Z,87.35
2018-12-30T08:45:22.830Z,87.87
2018-12-30T08:46:23.790Z,87.73
2018-12-30T08:47:22.858Z,87.87
2018-12-30T08:48:22.823Z,87.93
2018-12-30T08:49:22.780Z,88.80
2018-12-30T08:50:22.779Z,88.18
2018-12-30T08:51:22.760Z,88.70
2018-12-30T08:52:22.760Z,88.35
2018-12-30T08:53:29.321Z,89.11
2018-12-30T08:54:23.746Z,89.07
2018-12-30T08:55:22.726Z,88.90
2018-12-30T08:56:22.712Z,89.22
2018-12-30T08:57:22.705Z,88.90
2018-12-30T08:58:22.696Z,88.70
2018-12-30T08:59:22.995Z,88.76
2018-12-30T09:00:22.927Z,89.07
2018-12-30T09:01:28.477Z,88.56
2018-12-30T09:02:23.780Z,88.56
2018-12-30T09:03:22.738Z,88.65
2018-12-30T09:04:22.699Z,88.65
2018-12-30T09:05:22.903Z,88.14
2018-12-30T09:06:22.613Z,88.65
2018-12-30T09:07:22.591Z,88.56
2018-12-30T09:08:22.590Z,88.56
2018-12-30T09:09:22.575Z,88.14
2018-12-30T09:10:22.575Z,88.14
2018-12-30T09:11:22.613Z,88.35
2018-12-30T09:12:22.541Z,88.56
2018-12-30T09:13:23.471Z,88.65
2018-12-30T09:14:22.592Z,88.65
2018-12-30T09:15:22.534Z,88.20
2018-12-30T09:16:22.550Z,88.62
2018-12-30T09:17:22.494Z,88.24
2018-12-30T09:18:22.643Z,88.10
2018-12-30T09:19:22.500Z,88.35
2018-12-30T09:20:22.517Z,87.79
2018-12-30T09:21:22.475Z,88.35
2018-12-30T09:22:22.462Z,88.31
2018-12-30T09:23:22.544Z,87.69
2018-12-30T09:24:22.413Z,88.24
2018-12-30T09:25:22.427Z,88.31
2018-12-30T09:26:22.418Z,88.20
2018-12-30T09:27:22.438Z,88.10
2018-12-30T09:28:22.426Z,88.72
2018-12-30T09:29:22.381Z,88.76
2018-12-30T09:30:22.431Z,88.31
2018-12-30T09:31:22.352Z,88.20
2018-12-30T09:32:22.489Z,88.41
2018-12-30T09:33:22.323Z,88.62
2018-12-30T09:34:22.312Z,88.20
2018-12-30T09:35:22.305Z,88.62
2018-12-30T09:36:22.292Z,88.10
2018-12-30T09:37:22.409Z,88.41
2018-12-30T09:38:22.346Z,88.51
2018-12-30T09:39:22.259Z,88.31
2018-12-30T09:40:22.261Z,88.62
2018-12-30T09:41:22.237Z,88.62
2018-12-30T09:42:22.238Z,88.51
2018-12-30T09:43:22.242Z,88.51
2018-12-30T09:44:22.253Z,88.31
2018-12-30T09:45:22.202Z,88.51
2018-12-30T09:46:22.202Z,88.92
2018-12-30T09:47:22.174Z,89.13
2018-12-30T09:48:22.207Z,88.82
2018-12-30T09:49:22.162Z,88.72
2018-12-30T09:50:22.147Z,88.72
2018-12-30T09:51:22.156Z,88.51
2018-12-30T09:52:22.128Z,88.62
2018-12-30T09:53:22.120Z,88.62
2018-12-30T09:54:22.150Z,88.82
2018-12-30T09:55:22.131Z,88.92
2018-12-30T09:56:22.087Z,88.72
2018-12-30T09:57:22.083Z,88.68
2018-12-30T09:58:22.070Z,88.57
2018-12-30T09:59:22.050Z,88.57
2018-12-30T10:00:22.064Z,88.47
2018-12-30T10:01:22.141Z,88.10
2018-12-30T10:02:22.014Z,88.47
2018-12-30T10:03:22.069Z,88.06
2018-12-30T10:04:22.045Z,88.57
2018-12-30T10:05:22.368Z,88.26
2018-12-30T10:06:21.989Z,88.17
2018-12-30T10:07:22.724Z,87.75
2018-12-30T10:08:22.041Z,88.26
2018-12-30T10:09:21.942Z,88.33
2018-12-30T10:10:21.984Z,88.17
2018-12-30T10:11:21.953Z,88.02
2018-12-30T10:12:21.974Z,87.71
2018-12-30T10:13:21.968Z,87.71
2018-12-30T10:14:21.905Z,87.60
2018-12-30T10:15:21.882Z,87.40
2018-12-30T10:16:21.905Z,88.12
2018-12-30T10:17:22.718Z,88.33
2018-12-30T10:18:21.863Z,88.12
2018-12-30T10:19:21.889Z,88.02
2018-12-30T10:20:21.848Z,87.81
2018-12-30T10:21:21.826Z,87.71
2018-12-30T10:22:21.935Z,87.40
2018-12-30T10:23:21.801Z,87.60
2018-12-30T10:24:21.826Z,87.30
2018-12-30T10:25:21.825Z,87.30
2018-12-30T10:26:21.817Z,86.99
2018-12-30T10:27:21.811Z,87.60
2018-12-30T10:28:21.875Z,87.09
2018-12-30T10:29:21.740Z,86.68
2018-12-30T10:30:21.751Z,86.99
2018-12-30T10:31:21.717Z,87.30
2018-12-30T10:32:21.761Z,87.19
2018-12-30T10:33:21.741Z,87.30
2018-12-30T10:34:21.684Z,87.09
2018-12-30T10:35:21.699Z,86.68
2018-12-30T10:36:21.692Z,87.09
2018-12-30T10:37:21.713Z,86.88
2018-12-30T10:38:21.661Z,87.15
2018-12-30T10:39:21.641Z,87.26
2018-12-30T10:40:21.659Z,87.30
2018-12-30T10:41:22.247Z,87.71
2018-12-30T10:42:21.599Z,86.79
2018-12-30T10:43:21.702Z,86.79
2018-12-30T10:44:21.580Z,87.46
2018-12-30T10:45:21.569Z,87.71
2018-12-30T10:46:21.630Z,87.46
2018-12-30T10:47:21.548Z,87.05
2018-12-30T10:48:21.568Z,86.95
2018-12-30T10:49:21.544Z,86.88
2018-12-30T10:50:21.530Z,86.74
2018-12-30T10:51:21.564Z,86.54
2018-12-30T10:52:21.506Z,87.05
2018-12-30T10:53:21.482Z,87.15
2018-12-30T10:54:21.507Z,86.95
2018-12-30T10:55:21.471Z,86.64
2018-12-30T10:56:21.462Z,86.74
2018-12-30T10:57:21.447Z,86.33
2018-12-30T10:58:21.587Z,86.95
2018-12-30T10:59:21.452Z,87.05
2018-12-30T11:00:21.410Z,86.54
2018-12-30T11:01:21.403Z,86.95
2018-12-30T11:02:21.395Z,86.23
2018-12-30T11:03:21.382Z,86.64
2018-12-30T11:04:21.370Z,86.33
2018-12-30T11:05:21.378Z,86.13
2018-12-30T11:06:21.344Z,86.02
2018-12-30T11:07:21.337Z,85.92
2018-12-30T11:08:21.344Z,86.02
2018-12-30T11:09:21.370Z,85.30
2018-12-30T11:10:21.359Z,85.78
2018-12-30T11:11:21.314Z,85.82
2018-12-30T11:12:21.276Z,86.43
2018-12-30T11:13:21.273Z,85.61
2018-12-30T11:14:21.260Z,85.26
2018-12-30T11:15:21.246Z,85.71
2018-12-30T11:16:21.263Z,85.78
2018-12-30T11:17:21.228Z,85.88
2018-12-30T11:18:21.223Z,85.98
2018-12-30T11:19:21.209Z,86.02
2018-12-30T11:20:21.867Z,86.08
2018-12-30T11:21:21.213Z,85.68
2018-12-30T11:22:21.174Z,85.51
2018-12-30T11:23:21.173Z,85.57
2018-12-30T11:24:21.150Z,85.47
2018-12-30T11:25:21.178Z,85.82
2018-12-30T11:26:21.132Z,86.23
2018-12-30T11:27:21.149Z,85.78
2018-12-30T11:28:21.116Z,85.78
2018-12-30T11:29:21.100Z,85.51
2018-12-30T11:30:21.115Z,85.16
2018-12-30T11:31:21.077Z,85.26
2018-12-30T11:32:21.095Z,85.47
2018-12-30T11:33:21.133Z,85.57
2018-12-30T11:34:21.050Z,85.36
2018-12-30T11:35:21.042Z,85.47
2018-12-30T11:36:21.034Z,85.20
2018-12-30T11:37:21.044Z,85.41
2018-12-30T11:38:21.036Z,85.51
2018-12-30T11:39:21.006Z,84.69
2018-12-30T11:40:20.979Z,85.20
2018-12-30T11:41:20.992Z,85.47
2018-12-30T11:42:20.988Z,84.54
2018-12-30T11:43:20.985Z,84.38
2018-12-30T11:44:20.942Z,84.48
2018-12-30T11:45:20.953Z,83.92
2018-12-30T11:46:21.001Z,84.13
2018-12-30T11:47:20.911Z,84.38
2018-12-30T11:48:20.903Z,85.51
2018-12-30T11:49:20.902Z,85.71
2018-12-30T11:50:20.888Z,84.38
2018-12-30T11:51:20.875Z,84.34
2018-12-30T11:52:20.965Z,84.13
2018-12-30T11:53:20.935Z,84.44
2018-12-30T11:54:20.929Z,84.27
2018-12-30T11:55:20.868Z,85.71
2018-12-30T11:56:20.819Z,84.54
2018-12-30T11:57:20.804Z,84.48
2018-12-30T11:58:20.791Z,85.20
2018-12-30T11:59:20.809Z,85.30
2018-12-30T12:00:20.791Z,85.20
2018-12-30T12:01:20.762Z,85.92
2018-12-30T12:02:24.148Z,85.82
2018-12-30T12:03:20.742Z,85.41
2018-12-30T12:04:20.733Z,85.71
2018-12-30T12:05:20.774Z,85.61
2018-12-30T12:06:20.713Z,85.82
2018-12-30T12:07:20.794Z,86.54
2018-12-30T12:08:20.687Z,86.02
2018-12-30T12:09:20.706Z,86.33
2018-12-30T12:10:21.655Z,86.43
2018-12-30T12:11:20.703Z,86.54
2018-12-30T12:12:20.738Z,86.13
2018-12-30T12:13:20.637Z,86.74
2018-12-30T12:14:20.629Z,86.95
2018-12-30T12:15:20.615Z,87.15
2018-12-30T12:16:20.626Z,86.64
2018-12-30T12:17:20.614Z,86.47
2018-12-30T12:18:20.602Z,86.85
2018-12-30T12:19:20.571Z,86.47
2018-12-30T12:20:20.606Z,86.54
2018-12-30T12:21:20.548Z,86.02
2018-12-30T12:22:20.560Z,86.23
2018-12-30T12:23:20.554Z,86.13
2018-12-30T12:24:24.265Z,86.64
2018-12-30T12:25:20.507Z,86.64
2018-12-30T12:26:20.606Z,86.54
2018-12-30T12:27:20.613Z,86.43
2018-12-30T12:28:20.509Z,86.33
2018-12-30T12:29:20.551Z,86.23
2018-12-30T12:30:20.555Z,85.92
2018-12-30T12:31:20.487Z,85.51
2018-12-30T12:32:20.559Z,85.30
2018-12-30T12:33:20.670Z,85.41
2018-12-30T12:34:21.294Z,85.26
2018-12-30T12:35:20.458Z,85.10
2018-12-30T12:36:20.577Z,85.47
2018-12-30T12:37:20.468Z,84.75
2018-12-30T12:38:20.467Z,84.44
2018-12-30T12:39:21.314Z,84.34
2018-12-30T12:40:20.397Z,84.54
2018-12-30T12:41:20.349Z,84.03
2018-12-30T12:42:20.352Z,84.13
2018-12-30T12:43:20.338Z,83.83
2018-12-30T12:44:20.635Z,83.62
2018-12-30T12:45:21.063Z,84.23
2018-12-30T12:46:20.335Z,82.45
2018-12-30T12:47:20.630Z,82.82
2018-12-30T12:48:20.583Z,82.27
2018-12-30T12:49:20.339Z,83.03
2018-12-30T12:50:20.251Z,82.20
2018-12-30T12:51:20.461Z,81.93
2018-12-30T12:52:20.261Z,83.06